sensor_id;sensor_type;location;lat;lon;timestamp;P1;durP1;ratioP1;P2;durP2;ratioP2
39176;SDS011;24904;52.208;21.192;2023-04-24T00:03:23;10.10;;;7.40;;
39176;SDS011;24904;52.208;21.192;2023-04-24T00:08:29;15.40;;;7.60;;
39176;SDS011;24904;52.208;21.192;2023-04-24T00:13:32;11.60;;;7.20;;
39176;SDS011;24904;52.208;21.192;2023-04-24T00:18:35;9.30;;;7.00;;
39176;SDS011;24904;52.208;21.192;2023-04-24T00:23:38;13.30;;;7.60;;
39176;SDS011;24904;52.208;21.192;2023-04-24T00:28:41;11.90;;;7.30;;
39176;SDS011;24904;52.208;21.192;2023-04-24T00:33:44;10.90;;;6.90;;
39176;SDS011;24904;52.208;21.192;2023-04-24T00:38:47;14.00;;;7.90;;
39176;SDS011;24904;52.208;21.192;2023-04-24T00:43:50;12.80;;;7.20;;
39176;SDS011;24904;52.208;21.192;2023-04-24T00:48:54;12.00;;;7.10;;
39176;SDS011;24904;52.208;21.192;2023-04-24T00:54:00;12.10;;;7.50;;
39176;SDS011;24904;52.208;21.192;2023-04-24T00:59:03;11.70;;;6.90;;
39176;SDS011;24904;52.208;21.192;2023-04-24T01:04:08;9.90;;;7.20;;
39176;SDS011;24904;52.208;21.192;2023-04-24T01:09:13;10.60;;;6.70;;
39176;SDS011;24904;52.208;21.192;2023-04-24T01:14:16;12.90;;;7.20;;
39176;SDS011;24904;52.208;21.192;2023-04-24T01:19:19;11.50;;;7.20;;
39176;SDS011;24904;52.208;21.192;2023-04-24T01:24:22;11.80;;;7.30;;
39176;SDS011;24904;52.208;21.192;2023-04-24T01:29:26;16.50;;;7.70;;
39176;SDS011;24904;52.208;21.192;2023-04-24T01:34:29;9.80;;;6.90;;
39176;SDS011;24904;52.208;21.192;2023-04-24T01:39:32;12.60;;;8.00;;
39176;SDS011;24904;52.208;21.192;2023-04-24T01:44:35;12.30;;;8.30;;
39176;SDS011;24904;52.208;21.192;2023-04-24T01:49:39;13.00;;;8.50;;
39176;SDS011;24904;52.208;21.192;2023-04-24T01:54:42;10.80;;;7.00;;
39176;SDS011;24904;52.208;21.192;2023-04-24T01:59:45;12.50;;;7.40;;
39176;SDS011;24904;52.208;21.192;2023-04-24T02:04:49;13.40;;;7.80;;
39176;SDS011;24904;52.208;21.192;2023-04-24T02:09:52;11.10;;;7.10;;
39176;SDS011;24904;52.208;21.192;2023-04-24T02:14:56;11.30;;;7.00;;
39176;SDS011;24904;52.208;21.192;2023-04-24T02:19:59;10.50;;;7.90;;
39176;SDS011;24904;52.208;21.192;2023-04-24T02:25:03;14.90;;;8.10;;
39176;SDS011;24904;52.208;21.192;2023-04-24T02:30:08;11.90;;;8.20;;
39176;SDS011;24904;52.208;21.192;2023-04-24T02:35:12;14.70;;;8.20;;
39176;SDS011;24904;52.208;21.192;2023-04-24T02:40:16;14.80;;;7.70;;
39176;SDS011;24904;52.208;21.192;2023-04-24T02:45:19;11.90;;;8.10;;
39176;SDS011;24904;52.208;21.192;2023-04-24T02:50:22;16.40;;;8.20;;
39176;SDS011;24904;52.208;21.192;2023-04-24T02:55:25;11.10;;;7.50;;
39176;SDS011;24904;52.208;21.192;2023-04-24T03:00:29;13.30;;;8.40;;
39176;SDS011;24904;52.208;21.192;2023-04-24T03:05:32;13.50;;;8.60;;
39176;SDS011;24904;52.208;21.192;2023-04-24T03:10:35;20.30;;;8.10;;
39176;SDS011;24904;52.208;21.192;2023-04-24T03:15:38;11.40;;;8.00;;
39176;SDS011;24904;52.208;21.192;2023-04-24T03:20:42;11.20;;;7.70;;
39176;SDS011;24904;52.208;21.192;2023-04-24T03:25:48;17.20;;;8.30;;
39176;SDS011;24904;52.208;21.192;2023-04-24T03:30:53;11.80;;;8.00;;
39176;SDS011;24904;52.208;21.192;2023-04-24T03:35:57;11.70;;;7.70;;
39176;SDS011;24904;52.208;21.192;2023-04-24T03:41:13;15.50;;;7.90;;
39176;SDS011;24904;52.208;21.192;2023-04-24T03:46:29;10.60;;;8.30;;
39176;SDS011;24904;52.208;21.192;2023-04-24T04:00:01;14.20;;;8.10;;
39176;SDS011;24904;52.208;21.192;2023-04-24T04:05:16;13.80;;;8.80;;
39176;SDS011;24904;52.208;21.192;2023-04-24T04:10:19;15.60;;;9.30;;
39176;SDS011;24904;52.208;21.192;2023-04-24T04:15:22;14.50;;;7.90;;
39176;SDS011;24904;52.208;21.192;2023-04-24T04:20:26;11.80;;;8.00;;
39176;SDS011;24904;52.208;21.192;2023-04-24T04:25:29;14.40;;;8.40;;
39176;SDS011;24904;52.208;21.192;2023-04-24T04:30:32;13.70;;;8.50;;
39176;SDS011;24904;52.208;21.192;2023-04-24T04:35:38;12.70;;;8.20;;
39176;SDS011;24904;52.208;21.192;2023-04-24T04:40:41;13.80;;;9.20;;
39176;SDS011;24904;52.208;21.192;2023-04-24T04:45:46;15.90;;;8.40;;
39176;SDS011;24904;52.208;21.192;2023-04-24T04:51:07;15.00;;;8.40;;
39176;SDS011;24904;52.208;21.192;2023-04-24T04:56:11;13.70;;;8.70;;
39176;SDS011;24904;52.208;21.192;2023-04-24T05:01:17;16.20;;;8.70;;
39176;SDS011;24904;52.208;21.192;2023-04-24T05:06:22;18.20;;;9.30;;
39176;SDS011;24904;52.208;21.192;2023-04-24T05:11:26;15.50;;;8.60;;
39176;SDS011;24904;52.208;21.192;2023-04-24T05:16:30;15.00;;;9.00;;
39176;SDS011;24904;52.208;21.192;2023-04-24T05:21:34;14.90;;;9.10;;
39176;SDS011;24904;52.208;21.192;2023-04-24T05:26:37;12.70;;;8.20;;
39176;SDS011;24904;52.208;21.192;2023-04-24T05:31:42;17.90;;;8.70;;
39176;SDS011;24904;52.208;21.192;2023-04-24T05:36:45;15.00;;;8.50;;
39176;SDS011;24904;52.208;21.192;2023-04-24T05:45:38;12.90;;;8.80;;
39176;SDS011;24904;52.208;21.192;2023-04-24T05:59:28;13.10;;;7.60;;
39176;SDS011;24904;52.208;21.192;2023-04-24T06:04:32;16.30;;;8.10;;
39176;SDS011;24904;52.208;21.192;2023-04-24T06:09:36;14.80;;;8.40;;
39176;SDS011;24904;52.208;21.192;2023-04-24T06:14:39;17.20;;;8.40;;
39176;SDS011;24904;52.208;21.192;2023-04-24T06:19:55;15.40;;;8.80;;
39176;SDS011;24904;52.208;21.192;2023-04-24T06:25:00;15.80;;;9.10;;
39176;SDS011;24904;52.208;21.192;2023-04-24T06:30:03;27.70;;;8.50;;
39176;SDS011;24904;52.208;21.192;2023-04-24T06:35:08;13.10;;;7.30;;
39176;SDS011;24904;52.208;21.192;2023-04-24T06:40:13;11.40;;;7.30;;
39176;SDS011;24904;52.208;21.192;2023-04-24T06:45:16;14.50;;;7.10;;
39176;SDS011;24904;52.208;21.192;2023-04-24T06:50:19;13.60;;;7.50;;
39176;SDS011;24904;52.208;21.192;2023-04-24T06:55:22;21.90;;;8.10;;
39176;SDS011;24904;52.208;21.192;2023-04-24T07:00:26;11.60;;;7.20;;
39176;SDS011;24904;52.208;21.192;2023-04-24T07:05:29;12.90;;;7.30;;
39176;SDS011;24904;52.208;21.192;2023-04-24T07:10:34;10.90;;;7.00;;
39176;SDS011;24904;52.208;21.192;2023-04-24T07:15:38;11.60;;;7.10;;
39176;SDS011;24904;52.208;21.192;2023-04-24T07:20:42;10.10;;;6.70;;
39176;SDS011;24904;52.208;21.192;2023-04-24T07:25:45;13.90;;;6.70;;
39176;SDS011;24904;52.208;21.192;2023-04-24T07:30:48;13.40;;;7.50;;
39176;SDS011;24904;52.208;21.192;2023-04-24T07:35:51;12.50;;;7.40;;
39176;SDS011;24904;52.208;21.192;2023-04-24T07:40:54;10.10;;;7.00;;
39176;SDS011;24904;52.208;21.192;2023-04-24T07:45:57;10.80;;;6.10;;
39176;SDS011;24904;52.208;21.192;2023-04-24T07:51:01;9.50;;;6.40;;
39176;SDS011;24904;52.208;21.192;2023-04-24T07:56:04;13.60;;;6.00;;
39176;SDS011;24904;52.208;21.192;2023-04-24T08:01:07;16.30;;;6.70;;
39176;SDS011;24904;52.208;21.192;2023-04-24T08:06:11;13.60;;;6.10;;
39176;SDS011;24904;52.208;21.192;2023-04-24T08:11:14;15.30;;;6.80;;
39176;SDS011;24904;52.208;21.192;2023-04-24T08:16:17;16.30;;;6.90;;
39176;SDS011;24904;52.208;21.192;2023-04-24T08:21:20;11.40;;;6.20;;
39176;SDS011;24904;52.208;21.192;2023-04-24T08:26:23;18.00;;;6.70;;
39176;SDS011;24904;52.208;21.192;2023-04-24T08:31:26;12.00;;;5.60;;
39176;SDS011;24904;52.208;21.192;2023-04-24T08:36:29;11.80;;;5.90;;
39176;SDS011;24904;52.208;21.192;2023-04-24T08:41:33;17.00;;;5.90;;
39176;SDS011;24904;52.208;21.192;2023-04-24T08:46:38;9.00;;;5.90;;
39176;SDS011;24904;52.208;21.192;2023-04-24T08:51:42;13.90;;;5.70;;
39176;SDS011;24904;52.208;21.192;2023-04-24T08:56:48;10.80;;;5.60;;
39176;SDS011;24904;52.208;21.192;2023-04-24T09:01:52;14.80;;;6.50;;
39176;SDS011;24904;52.208;21.192;2023-04-24T09:06:57;12.30;;;6.70;;
39176;SDS011;24904;52.208;21.192;2023-04-24T09:12:01;26.50;;;8.80;;
39176;SDS011;24904;52.208;21.192;2023-04-24T09:17:05;15.30;;;6.40;;
39176;SDS011;24904;52.208;21.192;2023-04-24T09:22:09;11.50;;;6.10;;
39176;SDS011;24904;52.208;21.192;2023-04-24T09:27:12;9.20;;;6.10;;
39176;SDS011;24904;52.208;21.192;2023-04-24T09:32:18;15.90;;;6.00;;
39176;SDS011;24904;52.208;21.192;2023-04-24T09:37:29;9.40;;;5.90;;
39176;SDS011;24904;52.208;21.192;2023-04-24T09:42:36;8.30;;;6.20;;
39176;SDS011;24904;52.208;21.192;2023-04-24T09:47:40;13.60;;;5.60;;
39176;SDS011;24904;52.208;21.192;2023-04-24T09:52:45;12.50;;;5.30;;
39176;SDS011;24904;52.208;21.192;2023-04-24T09:57:58;10.30;;;5.50;;
39176;SDS011;24904;52.208;21.192;2023-04-24T10:03:03;12.00;;;5.70;;
39176;SDS011;24904;52.208;21.192;2023-04-24T10:08:45;6.50;;;5.00;;
39176;SDS011;24904;52.208;21.192;2023-04-24T10:13:49;11.30;;;6.10;;
39176;SDS011;24904;52.208;21.192;2023-04-24T10:18:53;7.20;;;5.00;;
39176;SDS011;24904;52.208;21.192;2023-04-24T10:23:56;9.10;;;5.90;;
39176;SDS011;24904;52.208;21.192;2023-04-24T10:29:01;11.10;;;6.50;;
39176;SDS011;24904;52.208;21.192;2023-04-24T10:34:08;10.10;;;5.50;;
39176;SDS011;24904;52.208;21.192;2023-04-24T10:39:12;11.30;;;5.20;;
39176;SDS011;24904;52.208;21.192;2023-04-24T10:44:17;8.70;;;5.50;;
39176;SDS011;24904;52.208;21.192;2023-04-24T10:49:28;8.20;;;4.40;;
39176;SDS011;24904;52.208;21.192;2023-04-24T10:54:35;9.90;;;5.50;;
39176;SDS011;24904;52.208;21.192;2023-04-24T10:59:42;16.10;;;5.90;;
39176;SDS011;24904;52.208;21.192;2023-04-24T11:04:45;8.40;;;5.00;;
39176;SDS011;24904;52.208;21.192;2023-04-24T11:09:58;10.50;;;5.30;;
39176;SDS011;24904;52.208;21.192;2023-04-24T11:15:02;14.70;;;5.60;;
39176;SDS011;24904;52.208;21.192;2023-04-24T11:20:15;7.20;;;4.70;;
39176;SDS011;24904;52.208;21.192;2023-04-24T11:25:19;11.10;;;5.00;;
39176;SDS011;24904;52.208;21.192;2023-04-24T11:30:24;5.40;;;3.90;;
39176;SDS011;24904;52.208;21.192;2023-04-24T11:35:35;6.20;;;4.30;;
39176;SDS011;24904;52.208;21.192;2023-04-24T11:40:42;8.80;;;4.40;;
39176;SDS011;24904;52.208;21.192;2023-04-24T11:45:48;7.40;;;5.00;;
39176;SDS011;24904;52.208;21.192;2023-04-24T11:50:51;7.90;;;3.90;;
39176;SDS011;24904;52.208;21.192;2023-04-24T11:55:54;7.70;;;4.50;;
39176;SDS011;24904;52.208;21.192;2023-04-24T12:00:57;5.70;;;3.90;;
39176;SDS011;24904;52.208;21.192;2023-04-24T12:06:05;7.10;;;4.70;;
39176;SDS011;24904;52.208;21.192;2023-04-24T12:11:09;7.30;;;4.90;;
39176;SDS011;24904;52.208;21.192;2023-04-24T12:16:13;8.90;;;5.10;;
39176;SDS011;24904;52.208;21.192;2023-04-24T12:21:17;9.00;;;4.70;;
39176;SDS011;24904;52.208;21.192;2023-04-24T12:34:45;6.10;;;4.10;;
39176;SDS011;24904;52.208;21.192;2023-04-24T12:40:01;7.00;;;4.10;;
39176;SDS011;24904;52.208;21.192;2023-04-24T12:45:07;9.30;;;4.30;;
39176;SDS011;24904;52.208;21.192;2023-04-24T12:50:14;12.30;;;4.30;;
39176;SDS011;24904;52.208;21.192;2023-04-24T12:55:17;8.30;;;4.30;;
39176;SDS011;24904;52.208;21.192;2023-04-24T13:00:20;22.30;;;3.70;;
39176;SDS011;24904;52.208;21.192;2023-04-24T13:05:23;34.80;;;4.20;;
39176;SDS011;24904;52.208;21.192;2023-04-24T13:10:26;11.20;;;4.20;;
39176;SDS011;24904;52.208;21.192;2023-04-24T13:15:30;22.10;;;4.30;;
39176;SDS011;24904;52.208;21.192;2023-04-24T13:20:33;28.20;;;4.20;;
39176;SDS011;24904;52.208;21.192;2023-04-24T13:25:37;7.40;;;3.40;;
39176;SDS011;24904;52.208;21.192;2023-04-24T13:30:40;7.00;;;4.00;;
39176;SDS011;24904;52.208;21.192;2023-04-24T13:35:43;9.10;;;3.60;;
39176;SDS011;24904;52.208;21.192;2023-04-24T13:40:46;5.30;;;3.50;;
39176;SDS011;24904;52.208;21.192;2023-04-24T13:45:49;6.70;;;4.00;;
39176;SDS011;24904;52.208;21.192;2023-04-24T13:50:52;6.80;;;3.70;;
39176;SDS011;24904;52.208;21.192;2023-04-24T13:55:55;6.10;;;3.50;;
39176;SDS011;24904;52.208;21.192;2023-04-24T14:00:58;6.30;;;3.10;;
39176;SDS011;24904;52.208;21.192;2023-04-24T14:06:01;6.60;;;3.20;;
39176;SDS011;24904;52.208;21.192;2023-04-24T14:11:04;8.60;;;2.80;;
39176;SDS011;24904;52.208;21.192;2023-04-24T14:16:07;4.60;;;3.20;;
39176;SDS011;24904;52.208;21.192;2023-04-24T14:21:11;5.30;;;3.20;;
39176;SDS011;24904;52.208;21.192;2023-04-24T14:26:14;10.50;;;3.30;;
39176;SDS011;24904;52.208;21.192;2023-04-24T14:31:17;5.30;;;3.20;;
39176;SDS011;24904;52.208;21.192;2023-04-24T14:36:20;14.00;;;3.50;;
39176;SDS011;24904;52.208;21.192;2023-04-24T14:41:24;7.20;;;3.80;;
39176;SDS011;24904;52.208;21.192;2023-04-24T14:46:27;7.70;;;3.70;;
39176;SDS011;24904;52.208;21.192;2023-04-24T14:51:30;7.00;;;3.60;;
39176;SDS011;24904;52.208;21.192;2023-04-24T14:56:33;6.30;;;4.00;;
39176;SDS011;24904;52.208;21.192;2023-04-24T15:01:36;8.10;;;4.20;;
39176;SDS011;24904;52.208;21.192;2023-04-24T15:06:39;5.40;;;3.50;;
39176;SDS011;24904;52.208;21.192;2023-04-24T15:11:43;6.20;;;3.90;;
39176;SDS011;24904;52.208;21.192;2023-04-24T15:16:46;5.70;;;3.50;;
39176;SDS011;24904;52.208;21.192;2023-04-24T15:21:49;5.30;;;3.50;;
39176;SDS011;24904;52.208;21.192;2023-04-24T15:26:52;15.70;;;3.90;;
39176;SDS011;24904;52.208;21.192;2023-04-24T15:31:56;7.00;;;3.50;;
39176;SDS011;24904;52.208;21.192;2023-04-24T15:36:59;9.50;;;4.00;;
39176;SDS011;24904;52.208;21.192;2023-04-24T15:42:02;6.10;;;3.60;;
39176;SDS011;24904;52.208;21.192;2023-04-24T15:47:05;7.90;;;3.80;;
39176;SDS011;24904;52.208;21.192;2023-04-24T15:52:08;6.40;;;3.50;;
39176;SDS011;24904;52.208;21.192;2023-04-24T15:57:11;4.90;;;3.00;;
39176;SDS011;24904;52.208;21.192;2023-04-24T16:02:15;8.40;;;3.30;;
39176;SDS011;24904;52.208;21.192;2023-04-24T16:07:19;8.20;;;4.00;;
39176;SDS011;24904;52.208;21.192;2023-04-24T16:12:22;6.80;;;3.40;;
39176;SDS011;24904;52.208;21.192;2023-04-24T16:17:27;9.30;;;3.60;;
39176;SDS011;24904;52.208;21.192;2023-04-24T16:22:30;6.90;;;3.20;;
39176;SDS011;24904;52.208;21.192;2023-04-24T16:27:34;14.80;;;3.90;;
39176;SDS011;24904;52.208;21.192;2023-04-24T16:32:37;7.00;;;3.30;;
39176;SDS011;24904;52.208;21.192;2023-04-24T16:37:40;4.90;;;3.60;;
39176;SDS011;24904;52.208;21.192;2023-04-24T16:42:43;6.70;;;3.80;;
39176;SDS011;24904;52.208;21.192;2023-04-24T16:47:46;5.20;;;3.20;;
39176;SDS011;24904;52.208;21.192;2023-04-24T16:52:49;4.70;;;3.20;;
39176;SDS011;24904;52.208;21.192;2023-04-24T16:57:52;9.30;;;3.20;;
39176;SDS011;24904;52.208;21.192;2023-04-24T17:02:55;4.70;;;3.10;;
39176;SDS011;24904;52.208;21.192;2023-04-24T17:07:58;4.80;;;2.70;;
39176;SDS011;24904;52.208;21.192;2023-04-24T17:13:01;5.90;;;3.20;;
39176;SDS011;24904;52.208;21.192;2023-04-24T17:18:43;7.10;;;4.20;;
39176;SDS011;24904;52.208;21.192;2023-04-24T17:23:46;7.00;;;3.70;;
39176;SDS011;24904;52.208;21.192;2023-04-24T17:28:49;5.90;;;3.50;;
39176;SDS011;24904;52.208;21.192;2023-04-24T17:33:54;15.60;;;4.30;;
39176;SDS011;24904;52.208;21.192;2023-04-24T17:38:57;5.60;;;3.60;;
39176;SDS011;24904;52.208;21.192;2023-04-24T17:44:00;5.30;;;3.70;;
39176;SDS011;24904;52.208;21.192;2023-04-24T17:49:03;11.70;;;4.20;;
39176;SDS011;24904;52.208;21.192;2023-04-24T17:54:06;11.80;;;4.10;;
39176;SDS011;24904;52.208;21.192;2023-04-24T17:59:10;11.60;;;4.30;;
39176;SDS011;24904;52.208;21.192;2023-04-24T18:04:13;16.10;;;4.80;;
39176;SDS011;24904;52.208;21.192;2023-04-24T18:09:16;6.90;;;4.70;;
39176;SDS011;24904;52.208;21.192;2023-04-24T18:14:20;8.60;;;4.40;;
39176;SDS011;24904;52.208;21.192;2023-04-24T18:19:25;7.90;;;4.20;;
39176;SDS011;24904;52.208;21.192;2023-04-24T18:24:28;9.60;;;4.20;;
39176;SDS011;24904;52.208;21.192;2023-04-24T18:29:31;7.30;;;4.50;;
39176;SDS011;24904;52.208;21.192;2023-04-24T18:34:34;9.90;;;4.50;;
39176;SDS011;24904;52.208;21.192;2023-04-24T18:39:38;7.60;;;4.80;;
39176;SDS011;24904;52.208;21.192;2023-04-24T18:44:41;9.60;;;5.60;;
39176;SDS011;24904;52.208;21.192;2023-04-24T18:49:44;8.20;;;5.20;;
39176;SDS011;24904;52.208;21.192;2023-04-24T18:54:47;11.00;;;4.80;;
39176;SDS011;24904;52.208;21.192;2023-04-24T18:59:50;9.80;;;5.30;;
39176;SDS011;24904;52.208;21.192;2023-04-24T19:04:54;12.20;;;6.60;;
39176;SDS011;24904;52.208;21.192;2023-04-24T19:09:57;10.50;;;6.90;;
39176;SDS011;24904;52.208;21.192;2023-04-24T19:15:00;11.50;;;5.90;;
39176;SDS011;24904;52.208;21.192;2023-04-24T19:20:03;13.30;;;6.50;;
39176;SDS011;24904;52.208;21.192;2023-04-24T19:25:08;11.00;;;6.90;;
39176;SDS011;24904;52.208;21.192;2023-04-24T19:30:12;16.10;;;7.10;;
39176;SDS011;24904;52.208;21.192;2023-04-24T19:35:15;13.50;;;7.20;;
39176;SDS011;24904;52.208;21.192;2023-04-24T19:40:18;11.30;;;6.50;;
39176;SDS011;24904;52.208;21.192;2023-04-24T19:45:21;22.40;;;7.30;;
39176;SDS011;24904;52.208;21.192;2023-04-24T19:50:25;14.20;;;6.60;;
39176;SDS011;24904;52.208;21.192;2023-04-24T19:55:28;11.00;;;5.70;;
39176;SDS011;24904;52.208;21.192;2023-04-24T20:00:31;11.80;;;5.90;;
39176;SDS011;24904;52.208;21.192;2023-04-24T20:05:35;10.10;;;5.70;;
39176;SDS011;24904;52.208;21.192;2023-04-24T20:10:38;12.10;;;5.80;;
39176;SDS011;24904;52.208;21.192;2023-04-24T20:15:41;8.90;;;6.20;;
39176;SDS011;24904;52.208;21.192;2023-04-24T20:20:44;13.30;;;6.30;;
39176;SDS011;24904;52.208;21.192;2023-04-24T20:25:47;15.20;;;5.50;;
39176;SDS011;24904;52.208;21.192;2023-04-24T20:30:57;7.80;;;5.30;;
39176;SDS011;24904;52.208;21.192;2023-04-24T20:36:01;10.80;;;6.00;;
39176;SDS011;24904;52.208;21.192;2023-04-24T20:41:04;9.70;;;5.70;;
39176;SDS011;24904;52.208;21.192;2023-04-24T20:46:08;9.90;;;6.50;;
39176;SDS011;24904;52.208;21.192;2023-04-24T20:51:12;11.20;;;5.90;;
39176;SDS011;24904;52.208;21.192;2023-04-24T20:56:15;14.30;;;7.00;;
39176;SDS011;24904;52.208;21.192;2023-04-24T21:01:19;10.60;;;6.70;;
39176;SDS011;24904;52.208;21.192;2023-04-24T21:06:22;11.10;;;6.40;;
39176;SDS011;24904;52.208;21.192;2023-04-24T21:11:25;10.30;;;5.90;;
39176;SDS011;24904;52.208;21.192;2023-04-24T21:16:28;14.70;;;6.70;;
39176;SDS011;24904;52.208;21.192;2023-04-24T21:21:31;11.00;;;6.70;;
39176;SDS011;24904;52.208;21.192;2023-04-24T21:26:34;11.30;;;7.30;;
39176;SDS011;24904;52.208;21.192;2023-04-24T21:31:37;11.90;;;7.10;;
39176;SDS011;24904;52.208;21.192;2023-04-24T21:36:40;15.90;;;8.00;;
39176;SDS011;24904;52.208;21.192;2023-04-24T21:41:43;11.30;;;7.50;;
39176;SDS011;24904;52.208;21.192;2023-04-24T21:46:47;12.30;;;8.00;;
39176;SDS011;24904;52.208;21.192;2023-04-24T21:51:50;13.40;;;7.80;;
39176;SDS011;24904;52.208;21.192;2023-04-24T21:56:53;13.10;;;7.50;;
39176;SDS011;24904;52.208;21.192;2023-04-24T22:01:56;14.40;;;7.80;;
39176;SDS011;24904;52.208;21.192;2023-04-24T22:06:59;10.50;;;7.60;;
39176;SDS011;24904;52.208;21.192;2023-04-24T22:12:02;14.00;;;8.10;;
39176;SDS011;24904;52.208;21.192;2023-04-24T22:17:06;13.40;;;8.00;;
39176;SDS011;24904;52.208;21.192;2023-04-24T22:22:10;14.90;;;7.70;;
39176;SDS011;24904;52.208;21.192;2023-04-24T22:27:14;12.00;;;7.90;;
39176;SDS011;24904;52.208;21.192;2023-04-24T22:32:17;13.60;;;7.90;;
39176;SDS011;24904;52.208;21.192;2023-04-24T22:37:20;15.90;;;7.70;;
39176;SDS011;24904;52.208;21.192;2023-04-24T22:42:23;12.80;;;8.40;;
39176;SDS011;24904;52.208;21.192;2023-04-24T22:47:26;11.00;;;8.10;;
39176;SDS011;24904;52.208;21.192;2023-04-24T22:52:29;11.00;;;8.10;;
39176;SDS011;24904;52.208;21.192;2023-04-24T22:57:32;12.20;;;8.20;;
39176;SDS011;24904;52.208;21.192;2023-04-24T23:02:36;16.50;;;9.10;;
39176;SDS011;24904;52.208;21.192;2023-04-24T23:07:40;11.30;;;8.90;;
39176;SDS011;24904;52.208;21.192;2023-04-24T23:12:44;10.60;;;8.70;;
39176;SDS011;24904;52.208;21.192;2023-04-24T23:17:47;15.40;;;9.20;;
39176;SDS011;24904;52.208;21.192;2023-04-24T23:22:50;13.20;;;8.80;;
39176;SDS011;24904;52.208;21.192;2023-04-24T23:27:53;12.60;;;9.30;;
39176;SDS011;24904;52.208;21.192;2023-04-24T23:32:59;16.70;;;9.90;;
39176;SDS011;24904;52.208;21.192;2023-04-24T23:38:03;13.30;;;10.10;;
39176;SDS011;24904;52.208;21.192;2023-04-24T23:43:06;15.10;;;10.20;;
39176;SDS011;24904;52.208;21.192;2023-04-24T23:48:09;15.60;;;10.10;;
39176;SDS011;24904;52.208;21.192;2023-04-24T23:53:12;11.00;;;9.20;;
39176;SDS011;24904;52.208;21.192;2023-04-24T23:58:15;11.70;;;8.70;;
